KK7AZD-13 Weather Reports


time (UTC)temp
C
wind
direction
speed
KPH
gust
KPH
rain 1hr
cm
rain 24hr
cm
rain mn
cm
humidity
%
barometer
mb
20260506040114 13 35 1.6 1.6 0.00 0.00 0.00 65 1015.8
20260506034611 15 31 0.0 0.0 0.00 0.00 0.00 63 1015.7
20260506033108 16 341 4.8 4.8 0.00 0.00 0.00 58 1015.2
20260506031605 17 319 3.2 3.2 0.00 0.00 0.00 58 1014.9
20260506030103 17 324 8.0 11.3 0.00 0.00 0.00 54 1014.9
20260506024559 18 299 11.3 12.9 0.00 0.00 0.00 53 1014.5
20260506023055 18 264 11.3 12.9 0.00 0.00 0.00 53 1014.5
20260506021553 19 40 9.7 11.3 0.00 0.00 0.00 53 1014.0
20260506020050 20 9 6.4 8.0 0.00 0.00 0.00 52 1013.9
20260506014548 20 269 8.0 11.3 0.00 0.00 0.00 53 1013.9
20260506013044 20 309 14.5 17.7 0.00 0.00 0.00 51 1013.7
20260506011540 20 271 11.3 16.1 0.00 0.00 0.00 50 1013.8
20260506010038 20 324 14.5 20.9 0.00 0.00 0.00 49 1013.3
20260506004534 21 299 8.0 11.3 0.00 0.00 0.00 48 1013.6
20260506003029 21 260 11.3 12.9 0.00 0.00 0.00 49 1013.2
20260506001524 20 307 12.9 16.1 0.00 0.00 0.00 50 1013.5
20260506000022 20 291 9.7 11.3 0.00 0.00 0.00 51 1013.2
20260505234519 21 301 4.8 4.8 0.00 0.00 0.00 48 1013.2
20260505233017 21 308 8.0 11.3 0.00 0.00 0.00 48 1013.3
20260505231514 22 331 4.8 8.0 0.00 0.00 0.00 44 1013.5
20260505230012 21 311 8.0 12.9 0.00 0.00 0.00 46 1013.3
20260505224508 21 324 12.9 14.5 0.00 0.00 0.00 42 1013.1
20260505223004 22 285 11.3 14.5 0.00 0.00 0.00 35 1013.0
20260505221459 21 307 8.0 11.3 0.00 0.00 0.00 42 1013.0
20260505215956 21 339 9.7 11.3 0.00 0.00 0.00 40 1013.2
20260505214455 21 270 11.3 12.9 0.00 0.00 0.00 37 1013.3
20260505212952 21 280 9.7 11.3 0.00 0.00 0.00 41 1013.3
20260505211449 21 287 3.2 4.8 0.00 0.00 0.00 40 1013.3
20260505205944 22 255 8.0 11.3 0.00 0.00 0.00 39 1013.5
20260505204443 22 278 11.3 14.5 0.00 0.00 0.00 34 1013.2
20260505202938 21 266 8.0 11.3 0.00 0.00 0.00 37 1013.5
20260505201434 21 304 8.0 9.7 0.00 0.00 0.00 37 1013.5
20260505195930 20 270 9.7 11.3 0.00 0.00 0.00 37 1013.6
20260505194428 20 298 8.0 9.7 0.00 0.00 0.00 46 1013.5
20260505192924 19 274 11.3 12.9 0.00 0.00 0.00 40 1013.7
20260505191424 20 295 12.9 14.5 0.00 0.00 0.00 39 1013.7
20260505185922 20 311 16.1 16.1 0.00 0.00 0.00 38 1013.6
20260505184419 18 232 6.4 9.7 0.00 0.00 0.00 41 1013.9
20260505182915 18 277 11.3 14.5 0.00 0.00 0.00 42 1013.8
20260505181412 17 283 12.9 14.5 0.00 0.00 0.00 40 1013.5
20260505175907 17 295 6.4 9.7 0.00 0.00 0.00 42 1013.7
20260505174404 17 273 8.0 11.3 0.00 0.00 0.00 42 1013.9
20260505172859 16 295 12.9 14.5 0.00 0.00 0.00 46 1013.9
20260505171359 16 270 4.8 8.0 0.00 0.00 0.00 50 1013.9
20260505165854 17 26 4.8 4.8 0.00 0.00 0.00 35 1013.9
20260505164354 16 324 4.8 4.8 0.00 0.00 0.00 50 1013.9
20260505162850 16 51 4.8 8.0 0.00 0.00 0.00 36 1013.8
20260505161345 15 43 1.6 3.2 0.00 0.00 0.00 40 1014.0
20260505152834 13 23 3.2 3.2 0.00 0.00 0.00 45 1013.9
20260505151334 12 64 1.6 3.2 0.00 0.00 0.00 49 1013.6
20260505124308 4 51 0.0 0.0 0.00 0.00 0.00 76 1012.8
20260505122808 4 47 0.0 0.0 0.00 0.00 0.00 76 1012.6
20260505121305 4 37 0.0 0.0 0.00 0.00 0.00 76 1012.3
20260505115802 4 46 0.0 0.0 0.00 0.00 0.00 78 1012.3
20260505114259 3 38 0.0 0.0 0.00 0.00 0.00 82 1012.2
20260505112800 5 51 3.2 3.2 0.00 0.00 0.00 76 1012.3
20260505111300 5 38 1.6 1.6 0.00 0.00 0.00 73 1012.2
20260505101246 7 22 0.0 0.0 0.00 0.00 0.00 68 1012.0
20260505095747 7 336 1.6 3.2 0.00 0.00 0.00 68 1012.0
20260505094243 9 20 3.2 3.2 0.00 0.00 0.00 61 1012.1
20260505092739 10 9 11.3 12.9 0.00 0.00 0.00 58 1011.9
20260505091239 10 11 9.7 9.7 0.00 0.00 0.00 58 1012.1
20260505085737 10 5 9.7 11.3 0.00 0.00 0.00 59 1012.2
20260505084237 10 7 9.7 11.3 0.00 0.00 0.00 58 1012.1
20260505082732 11 15 9.7 11.3 0.00 0.00 0.00 55 1011.9
20260505081229 10 16 11.3 12.9 0.00 0.00 0.00 56 1012.0
20260505075728 10 13 9.7 9.7 0.00 0.00 0.00 59 1011.9
20260505074226 10 26 4.8 4.8 0.00 0.00 0.00 60 1011.9
20260505072723 10 20 6.4 8.0 0.00 0.00 0.00 60 1012.0
20260505071218 10 16 8.0 9.7 0.00 0.00 0.00 60 1011.9
20260505065714 10 13 8.0 9.7 0.00 0.00 0.00 61 1011.9
20260505064212 10 24 4.8 4.8 0.00 0.00 0.00 58 1011.8
20260505062707 12 18 4.8 4.8 0.00 0.00 0.00 53 1011.9
20260505061206 12 18 3.2 3.2 0.00 0.00 0.00 52 1011.7
20260505055700 11 24 0.0 1.6 0.00 0.00 0.00 55 1011.8
20260505054158 12 349 3.2 3.2 0.00 0.00 0.00 52 1011.7
20260505052655 11 3 3.2 3.2 0.00 0.00 0.00 56 1011.4
20260505051153 14 19 4.8 4.8 0.00 0.00 0.00 47 1011.5
20260505041146 15 12 4.8 8.0 0.00 0.00 0.00 53 1010.6